createdAt,value
2019-01-04T00:04:45.451Z,1.20
2019-01-04T00:09:36.887Z,1.20
2019-01-04T00:14:28.239Z,1.30
2019-01-04T00:19:19.715Z,1.20
2019-01-04T00:24:11.070Z,1.30
2019-01-04T00:29:04.646Z,1.30
2019-01-04T00:33:56.187Z,1.30
2019-01-04T00:38:47.547Z,1.20
2019-01-04T00:43:38.987Z,1.20
2019-01-04T00:48:30.417Z,1.20
2019-01-04T00:53:21.870Z,1.20
2019-01-04T00:58:13.146Z,1.20
2019-01-04T01:03:04.633Z,1.10
2019-01-04T01:07:56.018Z,1.10
2019-01-04T01:12:47.346Z,1.10
2019-01-04T01:17:38.790Z,1.20
2019-01-04T01:22:30.143Z,1.10
2019-01-04T01:27:21.556Z,1.10
2019-01-04T01:32:13.019Z,0.90
2019-01-04T01:37:04.413Z,0.80
2019-01-04T01:41:55.697Z,0.70
2019-01-04T01:46:47.166Z,0.60
2019-01-04T01:51:38.643Z,0.40
2019-01-04T01:56:30.061Z,0.40
2019-01-04T02:01:21.467Z,0.30
2019-01-04T02:06:12.763Z,0.30
2019-01-04T02:11:04.249Z,0.30
2019-01-04T02:15:55.561Z,0.60
2019-01-04T02:20:47.007Z,0.40
2019-01-04T02:25:38.410Z,0.40
2019-01-04T02:30:29.710Z,0.30
2019-01-04T02:35:21.171Z,0.30
2019-01-04T02:40:12.492Z,0.30
2019-01-04T02:45:03.927Z,0.30
2019-01-04T02:49:55.359Z,0.30
2019-01-04T02:54:46.710Z,0.30
2019-01-04T02:59:38.041Z,0.20
2019-01-04T03:04:29.489Z,0.10
2019-01-04T03:09:20.857Z,0.10
2019-01-04T03:14:12.199Z,0.00
2019-01-04T03:19:03.722Z,-0.10
2019-01-04T03:23:54.999Z,-0.10
2019-01-04T03:28:46.492Z,-0.20
2019-01-04T03:33:37.907Z,-0.20
2019-01-04T03:38:29.198Z,-0.30
2019-01-04T03:43:20.637Z,-0.30
2019-01-04T03:48:12.074Z,-0.30
2019-01-04T03:53:03.345Z,-0.20
2019-01-04T03:57:54.778Z,-0.10
2019-01-04T04:02:46.222Z,-0.10
2019-01-04T04:07:37.640Z,0.00
2019-01-04T04:12:28.989Z,0.00
2019-01-04T04:17:20.453Z,3.20
2019-01-04T04:22:11.776Z,-0.20
2019-01-04T04:27:03.177Z,-0.10
2019-01-04T04:31:54.576Z,0.00
2019-01-04T04:36:46.004Z,-0.10
2019-01-04T04:41:37.369Z,-0.10
2019-01-04T04:46:28.797Z,-0.10
2019-01-04T04:51:20.110Z,-0.10
2019-01-04T04:56:11.496Z,-0.10
2019-01-04T05:01:02.871Z,-0.10
2019-01-04T05:05:54.348Z,-0.10
2019-01-04T05:10:45.670Z,-0.10
2019-01-04T05:15:37.121Z,-0.10
2019-01-04T05:20:28.472Z,0.10
2019-01-04T05:25:19.889Z,0.10
2019-01-04T05:30:11.381Z,0.10
2019-01-04T05:35:02.745Z,0.10
2019-01-04T05:39:54.148Z,0.10
2019-01-04T05:44:45.606Z,0.10
2019-01-04T05:49:36.927Z,0.10
2019-01-04T05:54:28.300Z,0.20
2019-01-04T05:59:19.667Z,0.30
2019-01-04T06:04:11.224Z,0.30
2019-01-04T06:09:02.552Z,0.30
2019-01-04T06:13:53.978Z,0.30
2019-01-04T06:18:45.450Z,0.30
2019-01-04T06:23:38.883Z,0.20
2019-01-04T06:28:30.461Z,0.20
2019-01-04T06:33:21.841Z,0.20
2019-01-04T06:38:13.179Z,0.10
2019-01-04T06:43:04.586Z,0.10
2019-01-04T06:47:55.931Z,0.00
2019-01-04T06:52:47.468Z,-0.10
2019-01-04T06:57:38.846Z,-0.20
2019-01-04T07:02:30.160Z,-0.30
2019-01-04T07:07:21.617Z,-0.30
2019-01-04T07:12:13.034Z,-0.40
2019-01-04T07:17:04.381Z,-0.50
2019-01-04T07:21:55.782Z,-0.70
2019-01-04T07:26:47.171Z,-1.00
2019-01-04T07:31:38.509Z,-0.90
2019-01-04T07:36:29.917Z,-0.90
2019-01-04T07:41:21.322Z,-0.80
2019-01-04T07:46:12.810Z,-0.70
2019-01-04T07:51:04.178Z,-0.70
2019-01-04T07:55:55.690Z,-0.60
2019-01-04T08:00:47.110Z,-0.50
2019-01-04T08:05:38.473Z,-0.50
2019-01-04T08:10:29.762Z,-0.50
2019-01-04T08:15:21.141Z,-0.40
2019-01-04T08:20:12.599Z,-0.30
2019-01-04T08:25:04.005Z,-0.10
2019-01-04T08:29:55.406Z,0.10
2019-01-04T08:34:46.702Z,0.50
2019-01-04T08:39:38.132Z,0.50
2019-01-04T08:44:29.567Z,0.70
2019-01-04T08:49:20.911Z,0.70
2019-01-04T08:54:12.355Z,0.70
2019-01-04T08:59:03.641Z,0.70
2019-01-04T09:03:55.127Z,0.90
2019-01-04T09:08:46.520Z,1.20
2019-01-04T09:13:37.963Z,1.30
2019-01-04T09:18:29.319Z,1.40
2019-01-04T09:23:20.790Z,1.60
2019-01-04T09:28:18.232Z,1.80
2019-01-04T09:33:03.535Z,2.10
2019-01-04T09:37:54.905Z,2.40
2019-01-04T09:42:46.306Z,2.60
2019-01-04T09:47:37.792Z,2.70
2019-01-04T09:52:29.213Z,2.80
2019-01-04T09:57:24.434Z,3.00
2019-01-04T10:02:11.953Z,3.40
2019-01-04T10:07:03.373Z,3.60
2019-01-04T10:11:54.759Z,3.70
2019-01-04T10:16:46.158Z,3.80
2019-01-04T10:21:39.740Z,4.00
2019-01-04T10:26:31.346Z,3.90
2019-01-04T10:31:22.705Z,3.90
2019-01-04T10:36:14.085Z,4.00
2019-01-04T10:41:05.413Z,3.90
2019-01-04T10:45:56.942Z,3.80
2019-01-04T10:50:48.334Z,3.70
2019-01-04T10:55:39.705Z,3.50
2019-01-04T11:00:31.030Z,3.50
2019-01-04T11:05:22.485Z,3.40
2019-01-04T11:10:13.945Z,3.30
2019-01-04T11:15:05.360Z,3.40
2019-01-04T11:19:56.732Z,3.20
2019-01-04T11:24:48.075Z,3.30
2019-01-04T11:29:39.552Z,3.10
2019-01-04T11:34:30.814Z,3.00
2019-01-04T11:39:22.273Z,1.70
2019-01-04T11:44:15.758Z,2.90
2019-01-04T11:49:07.391Z,2.90
2019-01-04T11:53:58.696Z,2.90
2019-01-04T11:58:50.155Z,3.00
2019-01-04T12:03:41.535Z,2.80
2019-01-04T12:08:35.072Z,3.20
2019-01-04T12:13:28.757Z,3.50
2019-01-04T12:18:26.961Z,3.60
2019-01-04T12:23:22.980Z,3.50
2019-01-04T12:28:14.359Z,3.50
2019-01-04T12:33:05.847Z,3.30
2019-01-04T12:37:59.336Z,3.20
2019-01-04T12:42:57.532Z,3.20
2019-01-04T12:47:58.045Z,3.30
2019-01-04T12:52:53.989Z,3.20
2019-01-04T12:57:52.152Z,3.40
2019-01-04T13:02:50.409Z,3.60
2019-01-04T13:07:46.296Z,3.70
2019-01-04T13:12:44.595Z,3.70
2019-01-04T13:17:42.717Z,3.70
2019-01-04T13:22:43.218Z,3.70
2019-01-04T13:27:39.182Z,3.80
2019-01-04T13:32:35.123Z,3.60
2019-01-04T13:37:33.302Z,3.50
2019-01-04T13:42:31.516Z,3.40
2019-01-04T13:47:22.932Z,3.30
2019-01-04T13:52:14.416Z,3.40
2019-01-04T13:57:05.821Z,3.50
2019-01-04T14:01:57.227Z,3.40
2019-01-04T14:06:50.752Z,3.40
2019-01-04T14:11:44.380Z,3.40
2019-01-04T14:16:49.369Z,3.50
2019-01-04T14:21:40.857Z,3.40
2019-01-04T14:26:36.699Z,3.40
2019-01-04T14:31:37.233Z,3.30
2019-01-04T14:36:37.651Z,3.20
2019-01-04T14:46:27.225Z,3.00
2019-01-04T14:51:27.678Z,2.80
2019-01-04T14:56:23.666Z,2.70
2019-01-04T15:01:21.841Z,2.70
2019-01-04T15:06:20.002Z,2.60
2019-01-04T15:11:15.987Z,2.50
2019-01-04T15:16:07.553Z,2.40
2019-01-04T15:21:01.069Z,2.30
2019-01-04T15:25:52.696Z,2.10
2019-01-04T15:30:50.740Z,1.90
2019-01-04T15:35:48.946Z,1.80
2019-01-04T15:40:47.178Z,1.60
2019-01-04T15:45:43.096Z,1.60
2019-01-04T15:50:41.299Z,1.60
2019-01-04T15:55:39.485Z,1.60
2019-01-04T16:00:40.016Z,1.60
2019-01-04T16:05:35.896Z,1.50
2019-01-04T16:10:34.116Z,1.40
2019-01-04T16:15:30.052Z,1.40
2019-01-04T16:20:28.264Z,1.40
2019-01-04T16:25:26.406Z,1.50
2019-01-04T16:30:24.617Z,1.50
2019-01-04T16:35:20.565Z,1.50
2019-01-04T16:40:18.769Z,1.40
2019-01-04T16:45:19.264Z,1.50
2019-01-04T16:50:12.929Z,1.50
2019-01-04T16:55:04.511Z,1.50
2019-01-04T17:00:00.201Z,1.50
2019-01-04T17:04:53.866Z,1.50
2019-01-04T17:09:47.571Z,1.50
2019-01-04T17:14:39.166Z,1.60
2019-01-04T17:19:41.078Z,1.60
2019-01-04T17:24:26.365Z,1.60
2019-01-04T17:29:22.203Z,1.60
2019-01-04T17:34:13.642Z,1.70
2019-01-04T17:39:05.046Z,1.70
2019-01-04T17:44:00.856Z,1.70
2019-01-04T17:48:59.058Z,1.80
2019-01-04T17:53:55.057Z,1.70
2019-01-04T17:58:53.255Z,1.80
2019-01-04T18:03:49.181Z,1.80
2019-01-04T18:08:40.750Z,1.90
2019-01-04T18:13:32.101Z,1.80
2019-01-04T18:18:23.603Z,1.70
2019-01-04T18:23:14.960Z,1.70
2019-01-04T18:32:57.799Z,1.80
2019-01-04T18:42:40.536Z,1.80
2019-01-04T19:02:08.414Z,1.70
2019-01-04T19:06:59.752Z,1.80
2019-01-04T19:11:51.202Z,1.80
2019-01-04T19:36:13.136Z,1.70
2019-01-04T19:41:01.672Z,1.60
2019-01-04T19:45:53.220Z,1.60
2019-01-04T20:10:14.696Z,1.80
2019-01-04T20:19:57.637Z,1.90
2019-01-04T20:24:48.955Z,1.80
2019-01-04T20:29:40.363Z,1.80
2019-01-04T20:34:31.723Z,1.90
2019-01-04T20:39:23.214Z,2.00
2019-01-04T20:44:14.585Z,2.00
2019-01-04T20:49:05.911Z,2.00
2019-01-04T20:53:57.293Z,2.00
2019-01-04T20:58:48.658Z,2.00
2019-01-04T21:03:40.106Z,1.90
2019-01-04T21:08:31.544Z,1.90
2019-01-04T21:13:22.854Z,1.90
2019-01-04T21:18:14.310Z,1.90
2019-01-04T21:23:07.760Z,1.80
2019-01-04T21:27:59.376Z,1.80
2019-01-04T21:32:50.784Z,1.80
2019-01-04T21:37:42.163Z,1.70
2019-01-04T21:42:33.628Z,1.70
2019-01-04T21:47:25.064Z,1.70
2019-01-04T21:52:16.401Z,1.70
2019-01-04T21:57:07.880Z,1.70
2019-01-04T22:01:59.250Z,1.70
2019-01-04T22:06:50.718Z,1.70
2019-01-04T22:11:42.077Z,1.70
2019-01-04T22:16:33.544Z,1.70
2019-01-04T22:21:24.867Z,1.80
2019-01-04T22:26:16.285Z,1.80
2019-01-04T22:31:07.751Z,1.80
2019-01-04T22:35:59.062Z,1.80
2019-01-04T22:40:50.543Z,1.80
2019-01-04T22:50:33.213Z,1.80
2019-01-04T22:55:24.692Z,1.80
2019-01-04T23:00:16.089Z,1.80
2019-01-04T23:05:07.469Z,1.90
2019-01-04T23:09:59.004Z,1.80
2019-01-04T23:14:50.481Z,1.80
2019-01-04T23:19:41.860Z,1.80
2019-01-04T23:24:33.415Z,1.90
2019-01-04T23:29:24.781Z,1.90
2019-01-04T23:34:16.229Z,1.90
2019-01-04T23:39:07.463Z,1.90
2019-01-04T23:44:01.052Z,1.90
2019-01-04T23:48:52.543Z,1.90
2019-01-04T23:53:44.072Z,5.10
2019-01-04T23:58:35.468Z,1.90
